sensor_id;sensor_type;location;lat;lon;timestamp;temperature;humidity
68648;SHT31;55632;51.962;16.116;2023-06-14T00:02:35;10.32;76.64
68648;SHT31;55632;51.962;16.116;2023-06-14T00:07:38;10.30;77.15
68648;SHT31;55632;51.962;16.116;2023-06-14T00:12:49;10.30;77.65
68648;SHT31;55632;51.962;16.116;2023-06-14T00:17:53;10.34;77.96
68648;SHT31;55632;51.962;16.116;2023-06-14T00:23:01;10.30;77.77
68648;SHT31;55632;51.962;16.116;2023-06-14T00:28:02;10.29;77.63
68648;SHT31;55632;51.962;16.116;2023-06-14T00:33:06;10.23;77.95
68648;SHT31;55632;51.962;16.116;2023-06-14T00:38:12;10.21;78.33
68648;SHT31;55632;51.962;16.116;2023-06-14T00:43:15;10.26;78.41
68648;SHT31;55632;51.962;16.116;2023-06-14T00:48:18;10.27;78.37
68648;SHT31;55632;51.962;16.116;2023-06-14T00:53:19;10.27;79.02
68648;SHT31;55632;51.962;16.116;2023-06-14T00:58:26;10.26;79.14
68648;SHT31;55632;51.962;16.116;2023-06-14T01:03:29;10.29;79.26
68648;SHT31;55632;51.962;16.116;2023-06-14T01:14:35;10.41;79.56
68648;SHT31;55632;51.962;16.116;2023-06-14T01:19:39;10.50;79.66
68648;SHT31;55632;51.962;16.116;2023-06-14T01:24:48;10.57;79.78
68648;SHT31;55632;51.962;16.116;2023-06-14T01:29:53;10.62;80.01
68648;SHT31;55632;51.962;16.116;2023-06-14T01:34:57;10.69;80.15
68648;SHT31;55632;51.962;16.116;2023-06-14T01:39:58;10.69;80.24
68648;SHT31;55632;51.962;16.116;2023-06-14T01:45:00;10.71;80.42
68648;SHT31;55632;51.962;16.116;2023-06-14T01:50:06;10.78;80.58
68648;SHT31;55632;51.962;16.116;2023-06-14T01:55:09;10.83;80.79
68648;SHT31;55632;51.962;16.116;2023-06-14T02:00:11;10.89;80.89
68648;SHT31;55632;51.962;16.116;2023-06-14T02:05:15;10.96;81.00
68648;SHT31;55632;51.962;16.116;2023-06-14T02:10:20;11.03;81.12
68648;SHT31;55632;51.962;16.116;2023-06-14T02:15:21;11.12;81.22
68648;SHT31;55632;51.962;16.116;2023-06-14T02:20:27;11.20;81.31
68648;SHT31;55632;51.962;16.116;2023-06-14T02:25:27;11.28;81.40
68648;SHT31;55632;51.962;16.116;2023-06-14T02:30:31;11.40;81.45
68648;SHT31;55632;51.962;16.116;2023-06-14T02:35:35;11.48;81.48
68648;SHT31;55632;51.962;16.116;2023-06-14T02:40:38;11.58;81.38
68648;SHT31;55632;51.962;16.116;2023-06-14T02:45:39;11.64;81.31
68648;SHT31;55632;51.962;16.116;2023-06-14T02:50:41;11.74;81.22
68648;SHT31;55632;51.962;16.116;2023-06-14T02:55:42;11.78;81.19
68648;SHT31;55632;51.962;16.116;2023-06-14T03:00:46;11.82;81.12
68648;SHT31;55632;51.962;16.116;2023-06-14T03:05:49;11.86;80.99
68648;SHT31;55632;51.962;16.116;2023-06-14T03:10:55;11.89;81.00
68648;SHT31;55632;51.962;16.116;2023-06-14T03:15:58;11.87;81.04
68648;SHT31;55632;51.962;16.116;2023-06-14T03:21:04;11.93;81.06
68648;SHT31;55632;51.962;16.116;2023-06-14T03:26:06;11.93;81.06
68648;SHT31;55632;51.962;16.116;2023-06-14T03:31:11;11.94;81.10
68648;SHT31;55632;51.962;16.116;2023-06-14T03:36:12;12.02;81.13
68648;SHT31;55632;51.962;16.116;2023-06-14T03:41:14;12.06;81.14
68648;SHT31;55632;51.962;16.116;2023-06-14T03:46:16;12.14;81.12
68648;SHT31;55632;51.962;16.116;2023-06-14T03:51:17;12.21;81.11
68648;SHT31;55632;51.962;16.116;2023-06-14T03:56:19;12.28;81.07
68648;SHT31;55632;51.962;16.116;2023-06-14T04:01:28;12.35;81.06
68648;SHT31;55632;51.962;16.116;2023-06-14T04:06:45;12.45;80.99
68648;SHT31;55632;51.962;16.116;2023-06-14T04:11:49;12.49;80.94
68648;SHT31;55632;51.962;16.116;2023-06-14T04:16:51;12.54;80.93
68648;SHT31;55632;51.962;16.116;2023-06-14T04:21:54;12.61;81.03
68648;SHT31;55632;51.962;16.116;2023-06-14T04:26:56;12.68;81.15
68648;SHT31;55632;51.962;16.116;2023-06-14T04:31:59;12.83;81.29
68648;SHT31;55632;51.962;16.116;2023-06-14T04:37:03;13.02;81.30
68648;SHT31;55632;51.962;16.116;2023-06-14T04:42:10;13.15;81.45
68648;SHT31;55632;51.962;16.116;2023-06-14T04:47:16;13.30;81.62
68648;SHT31;55632;51.962;16.116;2023-06-14T04:52:18;13.55;81.76
68648;SHT31;55632;51.962;16.116;2023-06-14T04:57:25;13.83;81.66
68648;SHT31;55632;51.962;16.116;2023-06-14T05:02:31;14.07;81.31
68648;SHT31;55632;51.962;16.116;2023-06-14T05:07:36;14.18;81.09
68648;SHT31;55632;51.962;16.116;2023-06-14T05:12:39;14.24;81.01
68648;SHT31;55632;51.962;16.116;2023-06-14T05:17:46;14.29;80.89
68648;SHT31;55632;51.962;16.116;2023-06-14T05:22:55;14.35;80.87
68648;SHT31;55632;51.962;16.116;2023-06-14T05:27:59;14.41;80.78
68648;SHT31;55632;51.962;16.116;2023-06-14T05:33:01;14.45;80.81
68648;SHT31;55632;51.962;16.116;2023-06-14T05:38:05;14.51;80.69
68648;SHT31;55632;51.962;16.116;2023-06-14T05:43:11;14.61;80.59
68648;SHT31;55632;51.962;16.116;2023-06-14T05:48:14;14.72;80.45
68648;SHT31;55632;51.962;16.116;2023-06-14T05:53:20;14.79;80.28
68648;SHT31;55632;51.962;16.116;2023-06-14T05:58:23;14.91;80.05
68648;SHT31;55632;51.962;16.116;2023-06-14T06:03:29;15.00;79.94
68648;SHT31;55632;51.962;16.116;2023-06-14T06:08:33;15.18;79.78
68648;SHT31;55632;51.962;16.116;2023-06-14T06:13:41;15.38;79.38
68648;SHT31;55632;51.962;16.116;2023-06-14T06:18:51;15.65;78.93
68648;SHT31;55632;51.962;16.116;2023-06-14T06:23:56;15.82;78.00
68648;SHT31;55632;51.962;16.116;2023-06-14T06:28:58;16.04;77.54
68648;SHT31;55632;51.962;16.116;2023-06-14T06:34:03;16.18;77.21
68648;SHT31;55632;51.962;16.116;2023-06-14T06:39:10;16.38;76.15
68648;SHT31;55632;51.962;16.116;2023-06-14T06:44:15;16.46;75.39
68648;SHT31;55632;51.962;16.116;2023-06-14T06:49:26;16.51;75.01
68648;SHT31;55632;51.962;16.116;2023-06-14T06:54:32;16.55;74.22
68648;SHT31;55632;51.962;16.116;2023-06-14T06:59:39;16.56;73.68
68648;SHT31;55632;51.962;16.116;2023-06-14T07:04:42;16.57;73.47
68648;SHT31;55632;51.962;16.116;2023-06-14T07:09:50;16.62;73.36
68648;SHT31;55632;51.962;16.116;2023-06-14T07:14:52;16.76;72.89
68648;SHT31;55632;51.962;16.116;2023-06-14T07:19:59;16.84;72.46
68648;SHT31;55632;51.962;16.116;2023-06-14T07:25:02;16.94;72.06
68648;SHT31;55632;51.962;16.116;2023-06-14T07:30:06;16.97;71.81
68648;SHT31;55632;51.962;16.116;2023-06-14T07:35:14;16.97;71.67
68648;SHT31;55632;51.962;16.116;2023-06-14T07:40:21;16.91;71.39
68648;SHT31;55632;51.962;16.116;2023-06-14T07:45:31;16.95;71.44
68648;SHT31;55632;51.962;16.116;2023-06-14T07:50:41;17.10;70.97
68648;SHT31;55632;51.962;16.116;2023-06-14T07:55:57;17.11;70.81
68648;SHT31;55632;51.962;16.116;2023-06-14T08:01:01;17.16;70.73
68648;SHT31;55632;51.962;16.116;2023-06-14T08:06:10;17.33;70.56
68648;SHT31;55632;51.962;16.116;2023-06-14T08:11:22;17.53;70.15
68648;SHT31;55632;51.962;16.116;2023-06-14T08:16:26;17.77;69.88
68648;SHT31;55632;51.962;16.116;2023-06-14T08:21:33;18.01;69.23
68648;SHT31;55632;51.962;16.116;2023-06-14T08:26:42;18.43;68.62
68648;SHT31;55632;51.962;16.116;2023-06-14T08:31:48;19.14;67.27
68648;SHT31;55632;51.962;16.116;2023-06-14T08:36:53;19.40;65.23
68648;SHT31;55632;51.962;16.116;2023-06-14T08:42:06;19.42;64.77
68648;SHT31;55632;51.962;16.116;2023-06-14T08:47:10;19.37;64.10
68648;SHT31;55632;51.962;16.116;2023-06-14T08:52:38;19.43;63.94
68648;SHT31;55632;51.962;16.116;2023-06-14T08:57:56;19.40;63.41
68648;SHT31;55632;51.962;16.116;2023-06-14T09:03:10;19.37;63.18
68648;SHT31;55632;51.962;16.116;2023-06-14T09:08:22;19.47;63.30
68648;SHT31;55632;51.962;16.116;2023-06-14T09:13:29;19.73;62.96
68648;SHT31;55632;51.962;16.116;2023-06-14T09:18:44;20.01;62.46
68648;SHT31;55632;51.962;16.116;2023-06-14T09:23:47;20.37;61.74
68648;SHT31;55632;51.962;16.116;2023-06-14T09:28:52;20.75;61.28
68648;SHT31;55632;51.962;16.116;2023-06-14T09:34:06;21.27;59.28
68648;SHT31;55632;51.962;16.116;2023-06-14T09:39:09;21.71;58.04
68648;SHT31;55632;51.962;16.116;2023-06-14T09:44:12;22.12;56.62
68648;SHT31;55632;51.962;16.116;2023-06-14T09:49:16;22.40;55.89
68648;SHT31;55632;51.962;16.116;2023-06-14T09:54:22;22.73;54.69
68648;SHT31;55632;51.962;16.116;2023-06-14T09:59:31;23.03;53.35
68648;SHT31;55632;51.962;16.116;2023-06-14T10:04:53;23.02;51.67
68648;SHT31;55632;51.962;16.116;2023-06-14T10:10:02;22.72;51.39
68648;SHT31;55632;51.962;16.116;2023-06-14T10:15:09;22.71;51.46
68648;SHT31;55632;51.962;16.116;2023-06-14T10:20:39;22.81;50.32
68648;SHT31;55632;51.962;16.116;2023-06-14T10:25:59;22.75;50.13
68648;SHT31;55632;51.962;16.116;2023-06-14T10:31:08;22.85;49.51
68648;SHT31;55632;51.962;16.116;2023-06-14T10:36:32;22.78;49.43
68648;SHT31;55632;51.962;16.116;2023-06-14T10:41:54;22.67;48.75
68648;SHT31;55632;51.962;16.116;2023-06-14T10:47:00;22.81;49.11
68648;SHT31;55632;51.962;16.116;2023-06-14T10:52:02;23.02;48.44
68648;SHT31;55632;51.962;16.116;2023-06-14T10:57:06;23.17;47.52
68648;SHT31;55632;51.962;16.116;2023-06-14T11:02:27;23.19;47.39
68648;SHT31;55632;51.962;16.116;2023-06-14T11:13:16;23.10;46.48
68648;SHT31;55632;51.962;16.116;2023-06-14T11:18:17;22.91;46.49
68648;SHT31;55632;51.962;16.116;2023-06-14T11:23:18;22.85;46.80
68648;SHT31;55632;51.962;16.116;2023-06-14T11:28:21;22.89;47.30
68648;SHT31;55632;51.962;16.116;2023-06-14T11:33:25;22.75;48.20
68648;SHT31;55632;51.962;16.116;2023-06-14T11:38:28;22.67;48.25
68648;SHT31;55632;51.962;16.116;2023-06-14T11:43:31;22.61;48.67
68648;SHT31;55632;51.962;16.116;2023-06-14T11:48:39;22.47;48.60
68648;SHT31;55632;51.962;16.116;2023-06-14T11:53:42;22.37;49.31
68648;SHT31;55632;51.962;16.116;2023-06-14T11:58:44;22.24;49.80
68648;SHT31;55632;51.962;16.116;2023-06-14T12:03:53;22.21;49.72
68648;SHT31;55632;51.962;16.116;2023-06-14T12:09:00;22.10;50.06
68648;SHT31;55632;51.962;16.116;2023-06-14T12:14:06;21.96;49.56
68648;SHT31;55632;51.962;16.116;2023-06-14T12:19:16;21.78;49.94
68648;SHT31;55632;51.962;16.116;2023-06-14T12:24:20;21.67;50.19
68648;SHT31;55632;51.962;16.116;2023-06-14T12:29:25;21.62;50.60
68648;SHT31;55632;51.962;16.116;2023-06-14T12:34:29;21.50;50.94
68648;SHT31;55632;51.962;16.116;2023-06-14T12:39:31;21.55;51.11
68648;SHT31;55632;51.962;16.116;2023-06-14T12:44:34;21.68;51.00
68648;SHT31;55632;51.962;16.116;2023-06-14T12:49:45;21.78;50.92
68648;SHT31;55632;51.962;16.116;2023-06-14T12:54:46;21.91;51.06
68648;SHT31;55632;51.962;16.116;2023-06-14T12:59:46;22.06;51.24
68648;SHT31;55632;51.962;16.116;2023-06-14T13:04:47;22.17;50.73
68648;SHT31;55632;51.962;16.116;2023-06-14T13:09:48;22.17;50.01
68648;SHT31;55632;51.962;16.116;2023-06-14T13:14:49;22.09;49.02
68648;SHT31;55632;51.962;16.116;2023-06-14T13:19:50;22.05;49.05
68648;SHT31;55632;51.962;16.116;2023-06-14T13:24:51;22.12;48.96
68648;SHT31;55632;51.962;16.116;2023-06-14T13:29:52;22.19;48.46
68648;SHT31;55632;51.962;16.116;2023-06-14T13:34:54;22.20;48.67
68648;SHT31;55632;51.962;16.116;2023-06-14T13:39:55;22.33;48.60
68648;SHT31;55632;51.962;16.116;2023-06-14T13:44:56;22.53;48.80
68648;SHT31;55632;51.962;16.116;2023-06-14T13:49:57;22.73;48.30
68648;SHT31;55632;51.962;16.116;2023-06-14T13:54:58;22.85;47.53
68648;SHT31;55632;51.962;16.116;2023-06-14T14:00:00;22.98;47.66
68648;SHT31;55632;51.962;16.116;2023-06-14T14:05:02;23.12;47.56
68648;SHT31;55632;51.962;16.116;2023-06-14T14:10:04;23.24;47.37
68648;SHT31;55632;51.962;16.116;2023-06-14T14:15:06;23.24;46.53
68648;SHT31;55632;51.962;16.116;2023-06-14T14:20:13;23.20;46.35
68648;SHT31;55632;51.962;16.116;2023-06-14T14:25:17;23.23;46.37
68648;SHT31;55632;51.962;16.116;2023-06-14T14:30:18;23.34;46.28
68648;SHT31;55632;51.962;16.116;2023-06-14T14:35:21;23.26;46.49
68648;SHT31;55632;51.962;16.116;2023-06-14T14:40:23;23.09;46.40
68648;SHT31;55632;51.962;16.116;2023-06-14T14:45:25;23.00;46.34
68648;SHT31;55632;51.962;16.116;2023-06-14T14:50:26;22.85;46.41
68648;SHT31;55632;51.962;16.116;2023-06-14T14:55:27;22.71;46.93
68648;SHT31;55632;51.962;16.116;2023-06-14T15:00:27;22.65;47.28
68648;SHT31;55632;51.962;16.116;2023-06-14T15:05:28;22.53;47.81
68648;SHT31;55632;51.962;16.116;2023-06-14T15:10:29;22.39;48.85
68648;SHT31;55632;51.962;16.116;2023-06-14T15:15:30;22.19;49.84
68648;SHT31;55632;51.962;16.116;2023-06-14T15:20:31;22.10;51.33
68648;SHT31;55632;51.962;16.116;2023-06-14T15:25:32;22.10;52.19
68648;SHT31;55632;51.962;16.116;2023-06-14T15:30:33;22.13;52.61
68648;SHT31;55632;51.962;16.116;2023-06-14T15:35:34;22.14;52.36
68648;SHT31;55632;51.962;16.116;2023-06-14T15:40:35;22.14;52.30
68648;SHT31;55632;51.962;16.116;2023-06-14T15:45:36;22.20;52.09
68648;SHT31;55632;51.962;16.116;2023-06-14T15:50:38;22.20;52.43
68648;SHT31;55632;51.962;16.116;2023-06-14T15:55:38;22.21;51.77
68648;SHT31;55632;51.962;16.116;2023-06-14T16:00:39;22.24;51.71
68648;SHT31;55632;51.962;16.116;2023-06-14T16:05:40;22.34;51.18
68648;SHT31;55632;51.962;16.116;2023-06-14T16:10:42;22.37;50.81
68648;SHT31;55632;51.962;16.116;2023-06-14T16:15:42;22.36;50.49
68648;SHT31;55632;51.962;16.116;2023-06-14T16:20:43;22.30;50.29
68648;SHT31;55632;51.962;16.116;2023-06-14T16:25:48;22.23;50.17
68648;SHT31;55632;51.962;16.116;2023-06-14T16:30:49;22.32;50.29
68648;SHT31;55632;51.962;16.116;2023-06-14T16:35:50;22.30;50.53
68648;SHT31;55632;51.962;16.116;2023-06-14T16:40:50;22.41;50.44
68648;SHT31;55632;51.962;16.116;2023-06-14T16:45:52;22.57;49.37
68648;SHT31;55632;51.962;16.116;2023-06-14T16:50:53;22.58;49.07
68648;SHT31;55632;51.962;16.116;2023-06-14T16:55:54;22.65;49.18
68648;SHT31;55632;51.962;16.116;2023-06-14T17:00:55;22.68;49.70
68648;SHT31;55632;51.962;16.116;2023-06-14T17:05:57;22.65;50.31
68648;SHT31;55632;51.962;16.116;2023-06-14T17:10:58;22.55;50.95
68648;SHT31;55632;51.962;16.116;2023-06-14T17:16:01;22.48;51.04
68648;SHT31;55632;51.962;16.116;2023-06-14T17:21:02;22.45;51.73
68648;SHT31;55632;51.962;16.116;2023-06-14T17:26:03;22.45;51.36
68648;SHT31;55632;51.962;16.116;2023-06-14T17:31:04;22.44;50.97
68648;SHT31;55632;51.962;16.116;2023-06-14T17:36:05;22.43;50.67
68648;SHT31;55632;51.962;16.116;2023-06-14T17:41:09;22.33;50.52
68648;SHT31;55632;51.962;16.116;2023-06-14T17:46:10;22.17;51.28
68648;SHT31;55632;51.962;16.116;2023-06-14T17:51:11;22.05;52.17
68648;SHT31;55632;51.962;16.116;2023-06-14T17:56:12;21.86;51.93
68648;SHT31;55632;51.962;16.116;2023-06-14T18:01:13;21.68;52.39
68648;SHT31;55632;51.962;16.116;2023-06-14T18:06:20;21.57;52.89
68648;SHT31;55632;51.962;16.116;2023-06-14T18:11:20;21.40;53.50
68648;SHT31;55632;51.962;16.116;2023-06-14T18:16:22;21.26;54.15
68648;SHT31;55632;51.962;16.116;2023-06-14T18:21:23;21.15;54.69
68648;SHT31;55632;51.962;16.116;2023-06-14T18:26:25;21.05;55.37
68648;SHT31;55632;51.962;16.116;2023-06-14T18:31:29;20.96;55.95
68648;SHT31;55632;51.962;16.116;2023-06-14T18:36:29;20.84;56.55
68648;SHT31;55632;51.962;16.116;2023-06-14T18:41:31;20.77;57.13
68648;SHT31;55632;51.962;16.116;2023-06-14T18:46:32;20.68;57.70
68648;SHT31;55632;51.962;16.116;2023-06-14T18:51:32;20.58;58.13
68648;SHT31;55632;51.962;16.116;2023-06-14T18:56:35;20.53;58.50
68648;SHT31;55632;51.962;16.116;2023-06-14T19:01:37;20.44;58.87
68648;SHT31;55632;51.962;16.116;2023-06-14T19:06:38;20.36;59.27
68648;SHT31;55632;51.962;16.116;2023-06-14T19:11:39;20.25;59.54
68648;SHT31;55632;51.962;16.116;2023-06-14T19:16:43;20.15;59.68
68648;SHT31;55632;51.962;16.116;2023-06-14T19:21:44;20.02;60.05
68648;SHT31;55632;51.962;16.116;2023-06-14T19:26:45;19.86;60.62
68648;SHT31;55632;51.962;16.116;2023-06-14T19:31:46;19.75;61.14
68648;SHT31;55632;51.962;16.116;2023-06-14T19:36:47;19.63;61.68
68648;SHT31;55632;51.962;16.116;2023-06-14T19:41:48;19.49;62.15
68648;SHT31;55632;51.962;16.116;2023-06-14T19:46:49;19.37;62.74
68648;SHT31;55632;51.962;16.116;2023-06-14T19:51:53;19.23;63.13
68648;SHT31;55632;51.962;16.116;2023-06-14T19:56:53;19.15;63.19
68648;SHT31;55632;51.962;16.116;2023-06-14T20:01:55;18.99;63.19
68648;SHT31;55632;51.962;16.116;2023-06-14T20:06:59;18.83;63.31
68648;SHT31;55632;51.962;16.116;2023-06-14T20:12:01;18.67;63.83
68648;SHT31;55632;51.962;16.116;2023-06-14T20:17:02;18.52;64.40
68648;SHT31;55632;51.962;16.116;2023-06-14T20:22:03;18.35;64.93
68648;SHT31;55632;51.962;16.116;2023-06-14T20:27:05;18.26;65.34
68648;SHT31;55632;51.962;16.116;2023-06-14T20:32:06;18.13;65.78
68648;SHT31;55632;51.962;16.116;2023-06-14T20:37:10;18.05;66.26
68648;SHT31;55632;51.962;16.116;2023-06-14T20:42:11;18.01;66.47
68648;SHT31;55632;51.962;16.116;2023-06-14T20:47:12;17.93;66.74
68648;SHT31;55632;51.962;16.116;2023-06-14T20:52:14;17.84;66.89
68648;SHT31;55632;51.962;16.116;2023-06-14T20:57:15;17.71;66.97
68648;SHT31;55632;51.962;16.116;2023-06-14T21:02:17;17.67;67.22
68648;SHT31;55632;51.962;16.116;2023-06-14T21:07:18;17.59;67.50
68648;SHT31;55632;51.962;16.116;2023-06-14T21:12:19;17.54;67.77
68648;SHT31;55632;51.962;16.116;2023-06-14T21:17:20;17.45;67.93
68648;SHT31;55632;51.962;16.116;2023-06-14T21:22:21;17.39;67.97
68648;SHT31;55632;51.962;16.116;2023-06-14T21:27:22;17.33;68.03
68648;SHT31;55632;51.962;16.116;2023-06-14T21:32:22;17.35;68.21
68648;SHT31;55632;51.962;16.116;2023-06-14T21:37:26;17.29;68.42
68648;SHT31;55632;51.962;16.116;2023-06-14T21:42:27;17.26;68.37
68648;SHT31;55632;51.962;16.116;2023-06-14T21:47:28;17.22;68.40
68648;SHT31;55632;51.962;16.116;2023-06-14T21:52:29;17.24;68.49
68648;SHT31;55632;51.962;16.116;2023-06-14T21:57:29;17.24;68.64
68648;SHT31;55632;51.962;16.116;2023-06-14T22:02:30;17.18;68.61
68648;SHT31;55632;51.962;16.116;2023-06-14T22:07:35;17.12;68.93
68648;SHT31;55632;51.962;16.116;2023-06-14T22:12:36;17.08;69.00
68648;SHT31;55632;51.962;16.116;2023-06-14T22:17:40;17.01;69.21
68648;SHT31;55632;51.962;16.116;2023-06-14T22:22:42;16.91;69.44
68648;SHT31;55632;51.962;16.116;2023-06-14T22:27:48;16.81;69.70
68648;SHT31;55632;51.962;16.116;2023-06-14T22:32:49;16.77;70.04
68648;SHT31;55632;51.962;16.116;2023-06-14T22:37:53;16.71;70.35
68648;SHT31;55632;51.962;16.116;2023-06-14T22:42:56;16.69;70.57
68648;SHT31;55632;51.962;16.116;2023-06-14T22:48:01;16.62;70.85
68648;SHT31;55632;51.962;16.116;2023-06-14T22:53:02;16.56;71.07
68648;SHT31;55632;51.962;16.116;2023-06-14T22:58:03;16.48;71.35
68648;SHT31;55632;51.962;16.116;2023-06-14T23:03:04;16.48;71.60
68648;SHT31;55632;51.962;16.116;2023-06-14T23:08:05;16.48;71.68
68648;SHT31;55632;51.962;16.116;2023-06-14T23:13:07;16.45;71.72
68648;SHT31;55632;51.962;16.116;2023-06-14T23:18:08;16.45;71.89
68648;SHT31;55632;51.962;16.116;2023-06-14T23:23:08;16.41;72.04
68648;SHT31;55632;51.962;16.116;2023-06-14T23:28:09;16.39;72.32
68648;SHT31;55632;51.962;16.116;2023-06-14T23:33:10;16.36;72.59
68648;SHT31;55632;51.962;16.116;2023-06-14T23:38:14;16.33;72.73
68648;SHT31;55632;51.962;16.116;2023-06-14T23:43:15;16.30;72.85
68648;SHT31;55632;51.962;16.116;2023-06-14T23:48:23;16.26;72.81
68648;SHT31;55632;51.962;16.116;2023-06-14T23:53:27;16.19;72.90
68648;SHT31;55632;51.962;16.116;2023-06-14T23:58:28;16.14;73.21
